4OH4 weather

Millertime Airport
Orient, Ohio, United States

Public forecast

Using degrees Fahrenheit for public forecast. Weather courtesy of forecast.io.

METAR (pilot weather report)

Closest report is Bolton Field, 6.6 nm (12.2 km) N. Retrieved 2019/05/21 15:47 UTC (1 hour ago):

KTZR 211547Z 11010KT 10SM SKC 13/04 A3014

TAF (pilot weather forecast)

Closest forecast is Rickenbacker International Airport, 8.8 nm (16.3 km) E. Retrieved 2019/05/21 12:33 UTC (4 hours ago):

TAF KLCK 211129Z 2112/2212 05006KT P6SM FEW030 BKN150 FM211500 07008KT P6SM BKN100 FM220300 07009KT P6SM FEW100 FM221100 11007KT P6SM SCT070 BKN250